sensor_id;sensor_type;location;lat;lon;timestamp;P1;durP1;ratioP1;P2;durP2;ratioP2
37527;SDS011;23372;52.050;4.810;2024-01-16T00:02:10;9.17;;;1.50;;
37527;SDS011;23372;52.050;4.810;2024-01-16T00:04:36;8.60;;;1.47;;
37527;SDS011;23372;52.050;4.810;2024-01-16T00:07:02;8.93;;;1.33;;
37527;SDS011;23372;52.050;4.810;2024-01-16T00:09:28;12.07;;;2.23;;
37527;SDS011;23372;52.050;4.810;2024-01-16T00:11:53;4.07;;;0.90;;
37527;SDS011;23372;52.050;4.810;2024-01-16T00:14:19;8.40;;;1.17;;
37527;SDS011;23372;52.050;4.810;2024-01-16T00:16:45;7.23;;;1.63;;
37527;SDS011;23372;52.050;4.810;2024-01-16T00:19:11;7.00;;;1.07;;
37527;SDS011;23372;52.050;4.810;2024-01-16T00:21:40;6.03;;;1.47;;
37527;SDS011;23372;52.050;4.810;2024-01-16T00:24:07;7.87;;;1.30;;
37527;SDS011;23372;52.050;4.810;2024-01-16T00:26:33;12.77;;;1.93;;
37527;SDS011;23372;52.050;4.810;2024-01-16T00:28:58;11.03;;;1.60;;
37527;SDS011;23372;52.050;4.810;2024-01-16T00:31:24;9.27;;;1.37;;
37527;SDS011;23372;52.050;4.810;2024-01-16T00:33:49;6.67;;;1.00;;
37527;SDS011;23372;52.050;4.810;2024-01-16T00:36:15;7.23;;;1.30;;
37527;SDS011;23372;52.050;4.810;2024-01-16T00:38:40;9.20;;;1.40;;
37527;SDS011;23372;52.050;4.810;2024-01-16T00:41:06;8.93;;;1.20;;
37527;SDS011;23372;52.050;4.810;2024-01-16T00:43:31;6.27;;;0.80;;
37527;SDS011;23372;52.050;4.810;2024-01-16T00:45:57;15.07;;;1.50;;
37527;SDS011;23372;52.050;4.810;2024-01-16T00:48:23;4.57;;;1.23;;
37527;SDS011;23372;52.050;4.810;2024-01-16T00:50:49;10.53;;;1.63;;
37527;SDS011;23372;52.050;4.810;2024-01-16T00:53:17;3.93;;;1.10;;
37527;SDS011;23372;52.050;4.810;2024-01-16T00:55:43;10.07;;;1.33;;
37527;SDS011;23372;52.050;4.810;2024-01-16T00:58:09;8.70;;;1.33;;
37527;SDS011;23372;52.050;4.810;2024-01-16T01:00:34;6.20;;;0.80;;
37527;SDS011;23372;52.050;4.810;2024-01-16T01:03:02;8.07;;;0.90;;
37527;SDS011;23372;52.050;4.810;2024-01-16T01:05:28;3.57;;;0.80;;
37527;SDS011;23372;52.050;4.810;2024-01-16T01:07:55;9.03;;;0.77;;
37527;SDS011;23372;52.050;4.810;2024-01-16T01:10:20;14.77;;;1.30;;
37527;SDS011;23372;52.050;4.810;2024-01-16T01:12:46;6.47;;;0.90;;
37527;SDS011;23372;52.050;4.810;2024-01-16T01:15:11;4.77;;;1.00;;
37527;SDS011;23372;52.050;4.810;2024-01-16T01:17:38;5.07;;;1.23;;
37527;SDS011;23372;52.050;4.810;2024-01-16T01:20:05;12.30;;;2.03;;
37527;SDS011;23372;52.050;4.810;2024-01-16T01:22:31;4.20;;;0.90;;
37527;SDS011;23372;52.050;4.810;2024-01-16T01:24:57;10.00;;;1.43;;
37527;SDS011;23372;52.050;4.810;2024-01-16T01:27:22;6.93;;;0.70;;
37527;SDS011;23372;52.050;4.810;2024-01-16T01:29:48;3.83;;;1.00;;
37527;SDS011;23372;52.050;4.810;2024-01-16T01:32:13;4.77;;;0.80;;
37527;SDS011;23372;52.050;4.810;2024-01-16T01:34:41;9.10;;;1.30;;
37527;SDS011;23372;52.050;4.810;2024-01-16T01:37:07;9.77;;;1.10;;
37527;SDS011;23372;52.050;4.810;2024-01-16T01:39:32;6.33;;;0.83;;
37527;SDS011;23372;52.050;4.810;2024-01-16T01:41:58;4.80;;;0.80;;
37527;SDS011;23372;52.050;4.810;2024-01-16T01:44:23;8.27;;;1.20;;
37527;SDS011;23372;52.050;4.810;2024-01-16T01:46:50;5.97;;;0.40;;
37527;SDS011;23372;52.050;4.810;2024-01-16T01:49:16;4.37;;;0.50;;
37527;SDS011;23372;52.050;4.810;2024-01-16T01:51:42;12.53;;;0.93;;
37527;SDS011;23372;52.050;4.810;2024-01-16T01:54:09;2.97;;;0.60;;
37527;SDS011;23372;52.050;4.810;2024-01-16T01:56:36;5.27;;;0.60;;
37527;SDS011;23372;52.050;4.810;2024-01-16T01:59:02;5.07;;;0.60;;
37527;SDS011;23372;52.050;4.810;2024-01-16T02:01:28;3.53;;;0.50;;
37527;SDS011;23372;52.050;4.810;2024-01-16T02:03:56;1.80;;;0.40;;
37527;SDS011;23372;52.050;4.810;2024-01-16T02:06:24;3.10;;;0.43;;
37527;SDS011;23372;52.050;4.810;2024-01-16T02:08:50;3.73;;;0.53;;
37527;SDS011;23372;52.050;4.810;2024-01-16T02:11:16;0.40;;;0.20;;
37527;SDS011;23372;52.050;4.810;2024-01-16T02:13:42;6.13;;;0.60;;
37527;SDS011;23372;52.050;4.810;2024-01-16T02:19:03;4.60;;;1.93;;
37527;SDS011;23372;52.050;4.810;2024-01-16T02:21:31;3.87;;;0.70;;
37527;SDS011;23372;52.050;4.810;2024-01-16T02:24:05;2.80;;;0.40;;
37527;SDS011;23372;52.050;4.810;2024-01-16T02:26:33;4.00;;;0.50;;
37527;SDS011;23372;52.050;4.810;2024-01-16T02:29:00;4.27;;;0.80;;
37527;SDS011;23372;52.050;4.810;2024-01-16T02:31:27;5.70;;;0.83;;
37527;SDS011;23372;52.050;4.810;2024-01-16T02:33:53;5.10;;;1.03;;
37527;SDS011;23372;52.050;4.810;2024-01-16T02:36:18;4.80;;;0.70;;
37527;SDS011;23372;52.050;4.810;2024-01-16T02:38:44;7.83;;;0.73;;
37527;SDS011;23372;52.050;4.810;2024-01-16T02:41:11;3.03;;;0.70;;
37527;SDS011;23372;52.050;4.810;2024-01-16T02:43:38;3.47;;;0.93;;
37527;SDS011;23372;52.050;4.810;2024-01-16T02:46:04;6.73;;;0.70;;
37527;SDS011;23372;52.050;4.810;2024-01-16T02:48:29;5.77;;;1.10;;
37527;SDS011;23372;52.050;4.810;2024-01-16T02:50:55;6.70;;;1.10;;
37527;SDS011;23372;52.050;4.810;2024-01-16T02:53:21;3.37;;;1.00;;
37527;SDS011;23372;52.050;4.810;2024-01-16T02:55:46;6.67;;;0.97;;
37527;SDS011;23372;52.050;4.810;2024-01-16T02:58:12;3.10;;;0.53;;
37527;SDS011;23372;52.050;4.810;2024-01-16T03:00:37;6.20;;;0.90;;
37527;SDS011;23372;52.050;4.810;2024-01-16T03:03:03;7.57;;;1.47;;
37527;SDS011;23372;52.050;4.810;2024-01-16T03:05:29;7.47;;;0.83;;
37527;SDS011;23372;52.050;4.810;2024-01-16T03:07:55;5.10;;;1.00;;
37527;SDS011;23372;52.050;4.810;2024-01-16T03:10:20;7.17;;;1.10;;
37527;SDS011;23372;52.050;4.810;2024-01-16T03:12:46;3.57;;;0.83;;
37527;SDS011;23372;52.050;4.810;2024-01-16T03:15:12;5.27;;;0.90;;
37527;SDS011;23372;52.050;4.810;2024-01-16T03:17:37;8.43;;;1.30;;
37527;SDS011;23372;52.050;4.810;2024-01-16T03:20:03;4.63;;;0.87;;
37527;SDS011;23372;52.050;4.810;2024-01-16T03:22:29;1.97;;;0.77;;
37527;SDS011;23372;52.050;4.810;2024-01-16T03:24:54;4.33;;;0.70;;
37527;SDS011;23372;52.050;4.810;2024-01-16T03:27:20;8.37;;;1.03;;
37527;SDS011;23372;52.050;4.810;2024-01-16T03:29:45;5.23;;;0.90;;
37527;SDS011;23372;52.050;4.810;2024-01-16T03:32:11;7.23;;;1.10;;
37527;SDS011;23372;52.050;4.810;2024-01-16T03:34:36;5.70;;;0.87;;
37527;SDS011;23372;52.050;4.810;2024-01-16T03:37:02;6.53;;;0.80;;
37527;SDS011;23372;52.050;4.810;2024-01-16T03:39:27;3.77;;;0.87;;
37527;SDS011;23372;52.050;4.810;2024-01-16T03:41:53;10.63;;;2.57;;
37527;SDS011;23372;52.050;4.810;2024-01-16T03:44:18;5.40;;;1.17;;
37527;SDS011;23372;52.050;4.810;2024-01-16T03:46:44;5.37;;;0.87;;
37527;SDS011;23372;52.050;4.810;2024-01-16T03:49:09;5.57;;;1.30;;
37527;SDS011;23372;52.050;4.810;2024-01-16T03:51:35;2.90;;;0.93;;
37527;SDS011;23372;52.050;4.810;2024-01-16T03:54:00;8.70;;;1.20;;
37527;SDS011;23372;52.050;4.810;2024-01-16T03:56:26;4.77;;;0.93;;
37527;SDS011;23372;52.050;4.810;2024-01-16T03:58:51;9.77;;;1.40;;
37527;SDS011;23372;52.050;4.810;2024-01-16T04:01:17;16.43;;;2.33;;
37527;SDS011;23372;52.050;4.810;2024-01-16T04:03:43;11.70;;;2.07;;
37527;SDS011;23372;52.050;4.810;2024-01-16T04:06:17;4.70;;;1.00;;
37527;SDS011;23372;52.050;4.810;2024-01-16T04:08:43;7.27;;;0.97;;
37527;SDS011;23372;52.050;4.810;2024-01-16T04:11:13;5.40;;;1.00;;
37527;SDS011;23372;52.050;4.810;2024-01-16T04:13:39;8.23;;;1.33;;
37527;SDS011;23372;52.050;4.810;2024-01-16T04:16:06;8.10;;;0.77;;
37527;SDS011;23372;52.050;4.810;2024-01-16T04:18:38;8.77;;;0.70;;
37527;SDS011;23372;52.050;4.810;2024-01-16T04:21:05;2.27;;;0.90;;
37527;SDS011;23372;52.050;4.810;2024-01-16T04:23:33;2.80;;;0.83;;
37527;SDS011;23372;52.050;4.810;2024-01-16T04:25:59;4.40;;;0.90;;
37527;SDS011;23372;52.050;4.810;2024-01-16T04:28:24;3.20;;;1.03;;
37527;SDS011;23372;52.050;4.810;2024-01-16T04:30:50;5.10;;;1.13;;
37527;SDS011;23372;52.050;4.810;2024-01-16T04:33:16;6.40;;;1.07;;
37527;SDS011;23372;52.050;4.810;2024-01-16T04:35:42;7.33;;;1.17;;
37527;SDS011;23372;52.050;4.810;2024-01-16T04:38:07;5.13;;;1.13;;
37527;SDS011;23372;52.050;4.810;2024-01-16T04:40:33;7.10;;;1.13;;
37527;SDS011;23372;52.050;4.810;2024-01-16T04:42:59;14.97;;;1.40;;
37527;SDS011;23372;52.050;4.810;2024-01-16T04:45:24;6.80;;;1.00;;
37527;SDS011;23372;52.050;4.810;2024-01-16T04:47:50;6.27;;;1.30;;
37527;SDS011;23372;52.050;4.810;2024-01-16T04:50:15;2.23;;;1.00;;
37527;SDS011;23372;52.050;4.810;2024-01-16T04:52:41;3.90;;;1.10;;
37527;SDS011;23372;52.050;4.810;2024-01-16T04:55:06;12.30;;;1.33;;
37527;SDS011;23372;52.050;4.810;2024-01-16T04:57:32;12.23;;;2.60;;
37527;SDS011;23372;52.050;4.810;2024-01-16T04:59:58;12.43;;;1.37;;
37527;SDS011;23372;52.050;4.810;2024-01-16T05:02:24;5.43;;;1.40;;
37527;SDS011;23372;52.050;4.810;2024-01-16T05:04:49;9.47;;;1.33;;
37527;SDS011;23372;52.050;4.810;2024-01-16T05:07:17;4.03;;;1.40;;
37527;SDS011;23372;52.050;4.810;2024-01-16T05:09:44;7.70;;;1.23;;
37527;SDS011;23372;52.050;4.810;2024-01-16T05:12:10;5.33;;;1.57;;
37527;SDS011;23372;52.050;4.810;2024-01-16T05:14:35;3.30;;;1.07;;
37527;SDS011;23372;52.050;4.810;2024-01-16T05:17:01;6.53;;;1.90;;
37527;SDS011;23372;52.050;4.810;2024-01-16T05:19:27;8.73;;;2.00;;
37527;SDS011;23372;52.050;4.810;2024-01-16T05:21:52;8.17;;;2.23;;
37527;SDS011;23372;52.050;4.810;2024-01-16T05:24:18;4.87;;;2.43;;
37527;SDS011;23372;52.050;4.810;2024-01-16T05:26:43;10.90;;;2.77;;
37527;SDS011;23372;52.050;4.810;2024-01-16T05:29:09;10.47;;;3.43;;
37527;SDS011;23372;52.050;4.810;2024-01-16T05:31:41;7.67;;;3.20;;
37527;SDS011;23372;52.050;4.810;2024-01-16T05:34:07;9.20;;;3.00;;
37527;SDS011;23372;52.050;4.810;2024-01-16T05:36:33;8.07;;;2.47;;
37527;SDS011;23372;52.050;4.810;2024-01-16T05:38:59;5.33;;;2.30;;
37527;SDS011;23372;52.050;4.810;2024-01-16T05:41:24;4.83;;;2.03;;
37527;SDS011;23372;52.050;4.810;2024-01-16T05:43:51;5.97;;;2.83;;
37527;SDS011;23372;52.050;4.810;2024-01-16T05:46:17;5.70;;;2.20;;
37527;SDS011;23372;52.050;4.810;2024-01-16T05:48:43;4.73;;;2.40;;
37527;SDS011;23372;52.050;4.810;2024-01-16T05:51:08;5.97;;;2.83;;
37527;SDS011;23372;52.050;4.810;2024-01-16T05:53:34;6.03;;;3.00;;
37527;SDS011;23372;52.050;4.810;2024-01-16T05:56:00;9.87;;;3.90;;
37527;SDS011;23372;52.050;4.810;2024-01-16T05:58:25;6.50;;;3.60;;
37527;SDS011;23372;52.050;4.810;2024-01-16T06:00:51;9.70;;;4.57;;
37527;SDS011;23372;52.050;4.810;2024-01-16T06:03:16;9.40;;;3.53;;
37527;SDS011;23372;52.050;4.810;2024-01-16T06:05:42;10.50;;;4.07;;
37527;SDS011;23372;52.050;4.810;2024-01-16T06:08:07;7.37;;;4.33;;
37527;SDS011;23372;52.050;4.810;2024-01-16T06:10:33;9.83;;;4.80;;
37527;SDS011;23372;52.050;4.810;2024-01-16T06:12:58;12.13;;;5.77;;
37527;SDS011;23372;52.050;4.810;2024-01-16T06:15:24;13.57;;;5.50;;
37527;SDS011;23372;52.050;4.810;2024-01-16T06:17:49;12.30;;;5.77;;
37527;SDS011;23372;52.050;4.810;2024-01-16T06:20:15;13.63;;;6.80;;
37527;SDS011;23372;52.050;4.810;2024-01-16T06:22:40;10.90;;;6.20;;
37527;SDS011;23372;52.050;4.810;2024-01-16T06:25:06;13.10;;;6.50;;
37527;SDS011;23372;52.050;4.810;2024-01-16T06:27:32;14.27;;;6.73;;
37527;SDS011;23372;52.050;4.810;2024-01-16T06:29:57;14.43;;;6.70;;
37527;SDS011;23372;52.050;4.810;2024-01-16T06:32:23;12.97;;;6.37;;
37527;SDS011;23372;52.050;4.810;2024-01-16T06:34:49;14.70;;;6.17;;
37527;SDS011;23372;52.050;4.810;2024-01-16T06:37:15;16.87;;;6.73;;
37527;SDS011;23372;52.050;4.810;2024-01-16T06:39:40;15.67;;;6.47;;
37527;SDS011;23372;52.050;4.810;2024-01-16T06:42:06;13.03;;;5.57;;
37527;SDS011;23372;52.050;4.810;2024-01-16T06:44:31;18.07;;;5.57;;
37527;SDS011;23372;52.050;4.810;2024-01-16T06:46:57;11.93;;;5.60;;
37527;SDS011;23372;52.050;4.810;2024-01-16T06:49:23;10.60;;;5.37;;
37527;SDS011;23372;52.050;4.810;2024-01-16T06:51:48;16.57;;;5.10;;
37527;SDS011;23372;52.050;4.810;2024-01-16T06:54:14;13.77;;;5.27;;
37527;SDS011;23372;52.050;4.810;2024-01-16T06:56:39;9.13;;;4.13;;
37527;SDS011;23372;52.050;4.810;2024-01-16T06:59:05;9.57;;;4.23;;
37527;SDS011;23372;52.050;4.810;2024-01-16T07:01:30;13.17;;;3.90;;
37527;SDS011;23372;52.050;4.810;2024-01-16T07:03:56;10.27;;;3.63;;
37527;SDS011;23372;52.050;4.810;2024-01-16T07:06:22;9.27;;;2.93;;
37527;SDS011;23372;52.050;4.810;2024-01-16T07:08:47;15.80;;;3.77;;
37527;SDS011;23372;52.050;4.810;2024-01-16T07:11:13;9.03;;;3.33;;
37527;SDS011;23372;52.050;4.810;2024-01-16T07:13:39;6.47;;;2.97;;
37527;SDS011;23372;52.050;4.810;2024-01-16T07:16:06;9.93;;;3.17;;
37527;SDS011;23372;52.050;4.810;2024-01-16T07:18:34;9.67;;;2.93;;
37527;SDS011;23372;52.050;4.810;2024-01-16T07:21:00;8.57;;;2.17;;
37527;SDS011;23372;52.050;4.810;2024-01-16T07:23:26;8.60;;;2.20;;
37527;SDS011;23372;52.050;4.810;2024-01-16T07:25:51;6.70;;;2.40;;
37527;SDS011;23372;52.050;4.810;2024-01-16T07:28:17;10.73;;;2.67;;
37527;SDS011;23372;52.050;4.810;2024-01-16T07:30:44;8.27;;;2.23;;
37527;SDS011;23372;52.050;4.810;2024-01-16T07:33:09;9.87;;;2.70;;
37527;SDS011;23372;52.050;4.810;2024-01-16T07:35:35;8.43;;;2.70;;
37527;SDS011;23372;52.050;4.810;2024-01-16T07:38:00;6.63;;;2.00;;
37527;SDS011;23372;52.050;4.810;2024-01-16T07:40:26;7.77;;;2.57;;
37527;SDS011;23372;52.050;4.810;2024-01-16T07:42:51;9.43;;;2.47;;
37527;SDS011;23372;52.050;4.810;2024-01-16T07:45:17;9.47;;;2.30;;
37527;SDS011;23372;52.050;4.810;2024-01-16T07:47:42;16.27;;;2.67;;
37527;SDS011;23372;52.050;4.810;2024-01-16T07:50:08;10.50;;;2.37;;
37527;SDS011;23372;52.050;4.810;2024-01-16T07:52:35;8.53;;;2.57;;
37527;SDS011;23372;52.050;4.810;2024-01-16T07:55:00;5.33;;;2.07;;
37527;SDS011;23372;52.050;4.810;2024-01-16T07:57:26;7.70;;;2.70;;
37527;SDS011;23372;52.050;4.810;2024-01-16T07:59:51;6.17;;;2.80;;
37527;SDS011;23372;52.050;4.810;2024-01-16T08:02:17;10.13;;;2.70;;
37527;SDS011;23372;52.050;4.810;2024-01-16T08:04:42;10.30;;;2.30;;
37527;SDS011;23372;52.050;4.810;2024-01-16T08:07:08;9.27;;;2.40;;
37527;SDS011;23372;52.050;4.810;2024-01-16T08:09:33;11.37;;;2.60;;
37527;SDS011;23372;52.050;4.810;2024-01-16T08:12:00;11.53;;;2.57;;
37527;SDS011;23372;52.050;4.810;2024-01-16T08:14:27;7.33;;;2.40;;
37527;SDS011;23372;52.050;4.810;2024-01-16T08:16:54;11.63;;;2.70;;
37527;SDS011;23372;52.050;4.810;2024-01-16T08:19:19;12.00;;;3.30;;
37527;SDS011;23372;52.050;4.810;2024-01-16T08:21:45;10.37;;;2.63;;
37527;SDS011;23372;52.050;4.810;2024-01-16T08:24:10;15.03;;;2.63;;
37527;SDS011;23372;52.050;4.810;2024-01-16T08:26:36;7.73;;;2.33;;
37527;SDS011;23372;52.050;4.810;2024-01-16T08:29:01;10.50;;;2.47;;
37527;SDS011;23372;52.050;4.810;2024-01-16T08:31:27;6.67;;;2.57;;
37527;SDS011;23372;52.050;4.810;2024-01-16T08:33:53;12.20;;;2.63;;
37527;SDS011;23372;52.050;4.810;2024-01-16T08:36:21;10.27;;;2.80;;
37527;SDS011;23372;52.050;4.810;2024-01-16T08:38:46;8.33;;;2.13;;
37527;SDS011;23372;52.050;4.810;2024-01-16T08:41:12;11.17;;;2.50;;
37527;SDS011;23372;52.050;4.810;2024-01-16T08:43:37;13.10;;;2.33;;
37527;SDS011;23372;52.050;4.810;2024-01-16T08:46:03;6.73;;;2.20;;
37527;SDS011;23372;52.050;4.810;2024-01-16T08:48:29;11.73;;;2.83;;
37527;SDS011;23372;52.050;4.810;2024-01-16T08:50:54;9.67;;;2.50;;
37527;SDS011;23372;52.050;4.810;2024-01-16T08:53:20;10.93;;;2.97;;
37527;SDS011;23372;52.050;4.810;2024-01-16T08:55:48;9.13;;;2.17;;
37527;SDS011;23372;52.050;4.810;2024-01-16T08:58:13;8.37;;;2.20;;
37527;SDS011;23372;52.050;4.810;2024-01-16T09:00:39;12.23;;;2.27;;
37527;SDS011;23372;52.050;4.810;2024-01-16T09:03:05;11.20;;;3.27;;
37527;SDS011;23372;52.050;4.810;2024-01-16T09:05:30;13.50;;;2.50;;
37527;SDS011;23372;52.050;4.810;2024-01-16T09:07:56;9.13;;;2.47;;
37527;SDS011;23372;52.050;4.810;2024-01-16T09:10:21;6.07;;;2.10;;
37527;SDS011;23372;52.050;4.810;2024-01-16T09:12:47;7.77;;;2.70;;
37527;SDS011;23372;52.050;4.810;2024-01-16T09:15:13;14.87;;;2.83;;
37527;SDS011;23372;52.050;4.810;2024-01-16T09:17:39;10.60;;;2.20;;
37527;SDS011;23372;52.050;4.810;2024-01-16T09:20:05;7.07;;;2.17;;
37527;SDS011;23372;52.050;4.810;2024-01-16T09:22:31;8.47;;;2.30;;
37527;SDS011;23372;52.050;4.810;2024-01-16T09:24:57;8.53;;;2.23;;
37527;SDS011;23372;52.050;4.810;2024-01-16T09:27:23;6.80;;;2.50;;
37527;SDS011;23372;52.050;4.810;2024-01-16T09:29:48;4.13;;;1.83;;
37527;SDS011;23372;52.050;4.810;2024-01-16T09:32:14;11.20;;;2.73;;
37527;SDS011;23372;52.050;4.810;2024-01-16T09:34:39;10.43;;;2.47;;
37527;SDS011;23372;52.050;4.810;2024-01-16T09:37:05;8.20;;;2.23;;
37527;SDS011;23372;52.050;4.810;2024-01-16T09:39:30;7.47;;;2.23;;
37527;SDS011;23372;52.050;4.810;2024-01-16T09:41:57;8.47;;;2.83;;
37527;SDS011;23372;52.050;4.810;2024-01-16T09:44:28;6.70;;;2.70;;
37527;SDS011;23372;52.050;4.810;2024-01-16T09:46:54;10.13;;;3.13;;
37527;SDS011;23372;52.050;4.810;2024-01-16T09:49:23;7.33;;;2.80;;
37527;SDS011;23372;52.050;4.810;2024-01-16T09:51:49;12.43;;;2.50;;
37527;SDS011;23372;52.050;4.810;2024-01-16T09:54:14;10.40;;;3.03;;
37527;SDS011;23372;52.050;4.810;2024-01-16T09:56:43;14.47;;;3.30;;
37527;SDS011;23372;52.050;4.810;2024-01-16T09:59:11;7.53;;;2.27;;
37527;SDS011;23372;52.050;4.810;2024-01-16T10:01:41;10.70;;;2.43;;
37527;SDS011;23372;52.050;4.810;2024-01-16T10:04:08;9.23;;;2.10;;
37527;SDS011;23372;52.050;4.810;2024-01-16T10:06:34;9.60;;;2.10;;
37527;SDS011;23372;52.050;4.810;2024-01-16T10:09:02;10.37;;;2.33;;
37527;SDS011;23372;52.050;4.810;2024-01-16T10:11:28;3.37;;;1.77;;
37527;SDS011;23372;52.050;4.810;2024-01-16T10:13:54;5.10;;;1.80;;
37527;SDS011;23372;52.050;4.810;2024-01-16T10:16:21;4.37;;;2.20;;
37527;SDS011;23372;52.050;4.810;2024-01-16T10:18:47;8.03;;;1.90;;
37527;SDS011;23372;52.050;4.810;2024-01-16T10:21:22;8.57;;;2.23;;
37527;SDS011;23372;52.050;4.810;2024-01-16T10:23:47;9.67;;;2.10;;
37527;SDS011;23372;52.050;4.810;2024-01-16T10:26:14;11.03;;;2.30;;
37527;SDS011;23372;52.050;4.810;2024-01-16T10:28:40;15.23;;;2.33;;
37527;SDS011;23372;52.050;4.810;2024-01-16T10:31:07;3.83;;;2.13;;
37527;SDS011;23372;52.050;4.810;2024-01-16T10:33:34;7.60;;;1.83;;
37527;SDS011;23372;52.050;4.810;2024-01-16T10:36:09;4.70;;;2.00;;
37527;SDS011;23372;52.050;4.810;2024-01-16T10:38:37;10.33;;;2.20;;
37527;SDS011;23372;52.050;4.810;2024-01-16T10:41:04;9.57;;;2.20;;
37527;SDS011;23372;52.050;4.810;2024-01-16T10:43:34;6.40;;;2.17;;
37527;SDS011;23372;52.050;4.810;2024-01-16T10:46:16;6.97;;;2.40;;
37527;SDS011;23372;52.050;4.810;2024-01-16T10:48:43;11.63;;;3.23;;
37527;SDS011;23372;52.050;4.810;2024-01-16T10:51:11;8.60;;;3.30;;
37527;SDS011;23372;52.050;4.810;2024-01-16T10:53:41;9.70;;;2.40;;
37527;SDS011;23372;52.050;4.810;2024-01-16T10:56:10;13.03;;;2.60;;
37527;SDS011;23372;52.050;4.810;2024-01-16T10:58:36;7.83;;;2.50;;
37527;SDS011;23372;52.050;4.810;2024-01-16T11:01:06;10.30;;;2.93;;
37527;SDS011;23372;52.050;4.810;2024-01-16T11:03:40;9.33;;;2.27;;
37527;SDS011;23372;52.050;4.810;2024-01-16T11:06:12;8.17;;;2.60;;
37527;SDS011;23372;52.050;4.810;2024-01-16T11:08:40;7.33;;;2.67;;
37527;SDS011;23372;52.050;4.810;2024-01-16T11:11:06;4.23;;;1.90;;
37527;SDS011;23372;52.050;4.810;2024-01-16T11:13:33;6.13;;;2.00;;
37527;SDS011;23372;52.050;4.810;2024-01-16T11:16:00;6.53;;;2.33;;
37527;SDS011;23372;52.050;4.810;2024-01-16T11:18:29;8.03;;;2.43;;
37527;SDS011;23372;52.050;4.810;2024-01-16T11:20:56;6.97;;;2.47;;
37527;SDS011;23372;52.050;4.810;2024-01-16T11:23:23;7.60;;;2.70;;
37527;SDS011;23372;52.050;4.810;2024-01-16T11:25:49;7.40;;;2.47;;
37527;SDS011;23372;52.050;4.810;2024-01-16T11:28:14;5.57;;;2.23;;
37527;SDS011;23372;52.050;4.810;2024-01-16T11:30:41;5.40;;;2.30;;
37527;SDS011;23372;52.050;4.810;2024-01-16T11:35:57;9.53;;;4.37;;
37527;SDS011;23372;52.050;4.810;2024-01-16T11:38:23;3.70;;;2.03;;
37527;SDS011;23372;52.050;4.810;2024-01-16T11:40:55;7.07;;;1.27;;
37527;SDS011;23372;52.050;4.810;2024-01-16T11:48:24;5.83;;;1.13;;
37527;SDS011;23372;52.050;4.810;2024-01-16T11:50:51;5.70;;;1.23;;
37527;SDS011;23372;52.050;4.810;2024-01-16T11:59:16;5.13;;;1.10;;
37527;SDS011;23372;52.050;4.810;2024-01-16T12:02:00;4.43;;;0.90;;
37527;SDS011;23372;52.050;4.810;2024-01-16T12:04:30;4.23;;;1.00;;
37527;SDS011;23372;52.050;4.810;2024-01-16T12:06:59;1.70;;;0.60;;
37527;SDS011;23372;52.050;4.810;2024-01-16T12:09:26;3.57;;;1.13;;
37527;SDS011;23372;52.050;4.810;2024-01-16T12:12:01;6.17;;;1.33;;
37527;SDS011;23372;52.050;4.810;2024-01-16T12:14:28;3.90;;;1.50;;
37527;SDS011;23372;52.050;4.810;2024-01-16T12:17:10;3.13;;;0.83;;
37527;SDS011;23372;52.050;4.810;2024-01-16T12:19:36;5.53;;;1.73;;
37527;SDS011;23372;52.050;4.810;2024-01-16T12:22:05;6.53;;;1.23;;
37527;SDS011;23372;52.050;4.810;2024-01-16T12:24:33;1.57;;;0.60;;
37527;SDS011;23372;52.050;4.810;2024-01-16T12:26:58;7.10;;;0.93;;
37527;SDS011;23372;52.050;4.810;2024-01-16T12:29:24;1.87;;;0.80;;
37527;SDS011;23372;52.050;4.810;2024-01-16T12:31:49;2.43;;;0.83;;
37527;SDS011;23372;52.050;4.810;2024-01-16T12:34:15;1.93;;;0.83;;
37527;SDS011;23372;52.050;4.810;2024-01-16T12:36:40;2.53;;;0.50;;
37527;SDS011;23372;52.050;4.810;2024-01-16T12:39:06;4.40;;;0.80;;
37527;SDS011;23372;52.050;4.810;2024-01-16T12:41:37;7.00;;;1.07;;
37527;SDS011;23372;52.050;4.810;2024-01-16T12:44:06;3.63;;;0.73;;
37527;SDS011;23372;52.050;4.810;2024-01-16T12:46:32;4.97;;;1.07;;
37527;SDS011;23372;52.050;4.810;2024-01-16T12:49:04;2.30;;;0.70;;
37527;SDS011;23372;52.050;4.810;2024-01-16T12:51:32;3.50;;;0.60;;
37527;SDS011;23372;52.050;4.810;2024-01-16T12:54:14;3.20;;;0.53;;
37527;SDS011;23372;52.050;4.810;2024-01-16T12:56:41;2.77;;;0.80;;
37527;SDS011;23372;52.050;4.810;2024-01-16T12:59:13;1.67;;;0.60;;
37527;SDS011;23372;52.050;4.810;2024-01-16T13:01:42;5.53;;;0.83;;
37527;SDS011;23372;52.050;4.810;2024-01-16T13:04:09;4.97;;;0.70;;
37527;SDS011;23372;52.050;4.810;2024-01-16T13:06:35;7.00;;;0.70;;
37527;SDS011;23372;52.050;4.810;2024-01-16T13:09:06;5.23;;;0.93;;
37527;SDS011;23372;52.050;4.810;2024-01-16T13:11:54;3.67;;;0.80;;
37527;SDS011;23372;52.050;4.810;2024-01-16T13:14:20;3.47;;;0.40;;
37527;SDS011;23372;52.050;4.810;2024-01-16T13:16:47;2.63;;;0.60;;
37527;SDS011;23372;52.050;4.810;2024-01-16T13:19:16;3.47;;;0.67;;
37527;SDS011;23372;52.050;4.810;2024-01-16T13:21:44;2.40;;;0.50;;
37527;SDS011;23372;52.050;4.810;2024-01-16T13:24:10;3.97;;;1.00;;
37527;SDS011;23372;52.050;4.810;2024-01-16T13:26:35;2.00;;;0.70;;
37527;SDS011;23372;52.050;4.810;2024-01-16T13:29:02;6.70;;;0.70;;
37527;SDS011;23372;52.050;4.810;2024-01-16T13:31:28;2.90;;;0.83;;
37527;SDS011;23372;52.050;4.810;2024-01-16T13:33:54;2.57;;;0.63;;
37527;SDS011;23372;52.050;4.810;2024-01-16T13:36:21;5.53;;;0.87;;
37527;SDS011;23372;52.050;4.810;2024-01-16T13:38:47;2.40;;;0.70;;
37527;SDS011;23372;52.050;4.810;2024-01-16T13:41:13;3.97;;;0.50;;
37527;SDS011;23372;52.050;4.810;2024-01-16T13:43:39;5.07;;;0.60;;
37527;SDS011;23372;52.050;4.810;2024-01-16T13:46:05;2.47;;;0.50;;
37527;SDS011;23372;52.050;4.810;2024-01-16T13:48:33;3.13;;;0.50;;
37527;SDS011;23372;52.050;4.810;2024-01-16T13:50:59;2.20;;;0.57;;
37527;SDS011;23372;52.050;4.810;2024-01-16T13:53:24;5.13;;;0.60;;
37527;SDS011;23372;52.050;4.810;2024-01-16T13:55:50;2.90;;;0.77;;
37527;SDS011;23372;52.050;4.810;2024-01-16T13:58:16;4.13;;;0.87;;
37527;SDS011;23372;52.050;4.810;2024-01-16T14:00:41;1.67;;;0.60;;
37527;SDS011;23372;52.050;4.810;2024-01-16T14:03:07;3.57;;;0.70;;
37527;SDS011;23372;52.050;4.810;2024-01-16T14:05:32;3.17;;;0.50;;
37527;SDS011;23372;52.050;4.810;2024-01-16T14:07:58;1.90;;;0.60;;
37527;SDS011;23372;52.050;4.810;2024-01-16T14:10:24;3.63;;;0.73;;
37527;SDS011;23372;52.050;4.810;2024-01-16T14:12:50;6.40;;;0.90;;
37527;SDS011;23372;52.050;4.810;2024-01-16T14:15:17;4.03;;;0.80;;
37527;SDS011;23372;52.050;4.810;2024-01-16T14:17:49;4.10;;;0.67;;
37527;SDS011;23372;52.050;4.810;2024-01-16T14:20:16;6.53;;;0.90;;
37527;SDS011;23372;52.050;4.810;2024-01-16T14:22:43;8.33;;;1.40;;
37527;SDS011;23372;52.050;4.810;2024-01-16T14:25:12;3.83;;;1.10;;
37527;SDS011;23372;52.050;4.810;2024-01-16T14:27:40;4.07;;;0.70;;
37527;SDS011;23372;52.050;4.810;2024-01-16T14:30:07;4.70;;;0.83;;
37527;SDS011;23372;52.050;4.810;2024-01-16T14:32:35;3.67;;;0.80;;
37527;SDS011;23372;52.050;4.810;2024-01-16T14:35:05;1.83;;;0.60;;
37527;SDS011;23372;52.050;4.810;2024-01-16T14:37:32;3.97;;;0.77;;
37527;SDS011;23372;52.050;4.810;2024-01-16T14:39:59;6.97;;;0.97;;
37527;SDS011;23372;52.050;4.810;2024-01-16T14:42:28;8.63;;;1.10;;
37527;SDS011;23372;52.050;4.810;2024-01-16T14:44:54;4.10;;;0.73;;
37527;SDS011;23372;52.050;4.810;2024-01-16T14:47:19;3.00;;;0.60;;
37527;SDS011;23372;52.050;4.810;2024-01-16T14:49:45;2.37;;;1.00;;
37527;SDS011;23372;52.050;4.810;2024-01-16T14:52:11;3.27;;;0.80;;
37527;SDS011;23372;52.050;4.810;2024-01-16T14:54:37;1.90;;;0.70;;
37527;SDS011;23372;52.050;4.810;2024-01-16T14:57:03;5.43;;;1.10;;
37527;SDS011;23372;52.050;4.810;2024-01-16T14:59:29;4.20;;;1.00;;